KPWK/PWK METAR and TAF weather

Enter ICAO airport designator
Station Type Date Time Source
KPWK METAR 2021/07/28 02:52 UTC NOAA

KPWK 280252Z 26004KT 10SM CLR 27/20 A3003 RMK AO2 SLP163 T02720200 53009


Station Type Date Time Source
KPWK Decoded METAR 2021/07/28 02:52 UTC NOAA

CHICAGO EXECUTIVE AIRPORT, IL, United States (KPWK) 42-07N 087-54W 203M
Jul 27, 2021 - 10:52 PM EDT / 2021.07.28 0252 UTC
Wind: from the W (260 degrees) at 5 MPH (4 KT):0
Visibility: 10 mile(s):0
Sky conditions: clear
Temperature: 81.0 F (27.2 C)
Dew Point: 68.0 F (20.0 C)
Relative Humidity: 64%
Pressure (altimeter): 30.03 in. Hg (1016 hPa)
Pressure tendency: 0.03 inches (0.9 hPa) higher than three hours ago
ob: KPWK 280252Z 26004KT 10SM CLR 27/20 A3003 RMK AO2 SLP163 T02720200 53009
cycle: 3

Station Type Date Time Source
KPWK TAF UTC NOAA

Error!

Example: see airport list